createdAt,value
2017-01-06T00:00:00.533Z,0
2017-01-06T00:01:00.537Z,0
2017-01-06T00:02:00.619Z,0
2017-01-06T00:03:00.550Z,0
2017-01-06T00:04:00.562Z,0
2017-01-06T00:05:00.572Z,0
2017-01-06T00:06:00.578Z,0
2017-01-06T00:07:00.592Z,0
2017-01-06T00:08:00.593Z,0
2017-01-06T00:09:00.615Z,0
2017-01-06T00:10:00.603Z,0
2017-01-06T00:11:00.618Z,0
2017-01-06T00:12:00.650Z,0
2017-01-06T00:13:00.634Z,0
2017-01-06T00:14:00.645Z,0
2017-01-06T00:15:00.773Z,0
2017-01-06T00:16:00.662Z,0
2017-01-06T00:17:00.671Z,0
2017-01-06T00:18:00.699Z,0
2017-01-06T00:19:00.680Z,0
2017-01-06T00:20:00.787Z,0
2017-01-06T00:21:01.093Z,0
2017-01-06T00:22:00.714Z,0
2017-01-06T00:23:00.719Z,0
2017-01-06T00:24:00.731Z,0
2017-01-06T00:25:00.742Z,0
2017-01-06T00:26:00.738Z,0
2017-01-06T00:27:00.746Z,0
2017-01-06T00:28:00.765Z,0
2017-01-06T00:29:00.773Z,0
2017-01-06T00:30:00.773Z,0
2017-01-06T00:31:00.782Z,0
2017-01-06T00:32:00.801Z,0
2017-01-06T00:33:00.799Z,0
2017-01-06T00:34:01.208Z,0
2017-01-06T00:35:00.809Z,0
2017-01-06T00:36:00.826Z,0
2017-01-06T00:37:00.828Z,0
2017-01-06T00:38:00.842Z,0
2017-01-06T00:39:00.848Z,0
2017-01-06T00:40:01.250Z,0
2017-01-06T00:41:00.860Z,0
2017-01-06T00:42:00.868Z,0
2017-01-06T00:43:00.887Z,0
2017-01-06T00:44:00.898Z,0
2017-01-06T00:45:00.900Z,0
2017-01-06T00:46:00.954Z,0
2017-01-06T00:47:00.912Z,0
2017-01-06T00:48:00.924Z,0
2017-01-06T00:49:00.926Z,0
2017-01-06T00:50:00.945Z,0
2017-01-06T00:51:00.972Z,0
2017-01-06T00:52:00.953Z,0
2017-01-06T00:53:00.956Z,0
2017-01-06T00:54:00.971Z,0
2017-01-06T00:55:00.973Z,0
2017-01-06T00:56:00.989Z,0
2017-01-06T00:57:00.993Z,0
2017-01-06T00:58:01.018Z,0
2017-01-06T00:59:01.006Z,0
2017-01-06T01:00:01.033Z,0
2017-01-06T01:01:01.024Z,0
2017-01-06T01:02:01.048Z,0
2017-01-06T01:03:01.080Z,0
2017-01-06T01:04:01.055Z,0
2017-01-06T01:05:01.061Z,0
2017-01-06T01:06:01.085Z,0
2017-01-06T01:07:01.081Z,0
2017-01-06T01:08:01.093Z,0
2017-01-06T01:09:01.104Z,0
2017-01-06T01:10:01.103Z,0
2017-01-06T01:11:01.118Z,0
2017-01-06T01:12:01.120Z,0
2017-01-06T01:13:01.150Z,0
2017-01-06T01:14:01.136Z,0
2017-01-06T01:15:01.146Z,0
2017-01-06T01:16:01.557Z,0
2017-01-06T01:17:01.160Z,0
2017-01-06T01:18:01.169Z,0
2017-01-06T01:19:01.325Z,0
2017-01-06T01:20:01.187Z,0
2017-01-06T01:21:01.190Z,0
2017-01-06T01:22:01.214Z,0
2017-01-06T01:23:01.213Z,0
2017-01-06T01:24:01.221Z,0
2017-01-06T01:25:01.224Z,0
2017-01-06T01:26:01.237Z,0
2017-01-06T01:27:01.240Z,0
2017-01-06T01:28:01.257Z,0
2017-01-06T01:29:01.258Z,0
2017-01-06T01:30:01.664Z,0
2017-01-06T01:31:01.287Z,0
2017-01-06T01:32:01.284Z,0
2017-01-06T01:33:01.472Z,0
2017-01-06T01:34:01.299Z,0
2017-01-06T01:35:01.460Z,0
2017-01-06T01:36:01.315Z,0
2017-01-06T01:37:01.336Z,0
2017-01-06T01:38:01.333Z,0
2017-01-06T01:39:01.350Z,0
2017-01-06T01:40:01.353Z,0
2017-01-06T01:41:01.357Z,0
2017-01-06T01:42:01.364Z,0
2017-01-06T01:43:01.371Z,0
2017-01-06T01:44:01.385Z,0
2017-01-06T01:45:01.418Z,0
2017-01-06T01:46:01.392Z,0
2017-01-06T01:47:01.403Z,0
2017-01-06T01:48:01.425Z,0
2017-01-06T01:49:01.426Z,0
2017-01-06T01:50:01.426Z,0
2017-01-06T01:51:01.438Z,0
2017-01-06T01:52:01.453Z,0
2017-01-06T01:53:01.455Z,0
2017-01-06T01:54:01.460Z,0
2017-01-06T01:55:01.466Z,0
2017-01-06T01:56:01.477Z,0
2017-01-06T01:57:01.485Z,0
2017-01-06T01:58:01.493Z,0
2017-01-06T01:59:04.536Z,0
2017-01-06T02:00:01.541Z,0
2017-01-06T02:01:33.587Z,0
2017-01-06T02:02:01.515Z,0
2017-01-06T02:03:33.605Z,0
2017-01-06T02:04:33.624Z,0
2017-01-06T02:05:01.575Z,0
2017-01-06T02:06:01.554Z,0
2017-01-06T02:07:01.594Z,0
2017-01-06T02:08:01.567Z,0
2017-01-06T02:09:01.568Z,0
2017-01-06T02:10:01.596Z,0
2017-01-06T02:11:01.593Z,0
2017-01-06T02:12:01.599Z,0
2017-01-06T02:13:01.610Z,0
2017-01-06T02:14:01.653Z,0
2017-01-06T02:15:01.627Z,0
2017-01-06T02:16:01.651Z,0
2017-01-06T02:17:01.654Z,0
2017-01-06T02:18:01.657Z,0
2017-01-06T02:19:01.656Z,0
2017-01-06T02:20:01.717Z,0
2017-01-06T02:21:01.676Z,0
2017-01-06T02:22:01.684Z,0
2017-01-06T02:23:01.685Z,0
2017-01-06T02:24:01.695Z,0
2017-01-06T02:25:01.700Z,0
2017-01-06T02:26:01.721Z,0
2017-01-06T02:27:01.722Z,0
2017-01-06T02:28:01.727Z,0
2017-01-06T02:29:01.736Z,0
2017-01-06T02:30:01.743Z,0
2017-01-06T02:31:01.748Z,0
2017-01-06T02:32:01.760Z,0
2017-01-06T02:33:01.793Z,0
2017-01-06T02:34:01.775Z,0
2017-01-06T02:35:01.787Z,0
2017-01-06T02:36:01.785Z,0
2017-01-06T02:37:01.800Z,0
2017-01-06T02:38:01.803Z,0
2017-01-06T02:39:01.815Z,0
2017-01-06T02:40:01.833Z,0
2017-01-06T02:41:01.834Z,0
2017-01-06T02:42:01.839Z,0
2017-01-06T02:43:01.849Z,0
2017-01-06T02:44:02.251Z,0
2017-01-06T02:45:01.859Z,0
2017-01-06T02:46:01.866Z,0
2017-01-06T02:47:01.882Z,0
2017-01-06T02:48:01.894Z,0
2017-01-06T02:49:01.902Z,0
2017-01-06T02:50:01.906Z,0
2017-01-06T02:51:01.917Z,0
2017-01-06T02:52:01.920Z,0
2017-01-06T02:53:01.930Z,0
2017-01-06T02:54:01.933Z,0
2017-01-06T02:55:01.947Z,0
2017-01-06T02:56:01.952Z,0
2017-01-06T02:57:01.969Z,0
2017-01-06T02:58:01.969Z,0
2017-01-06T02:59:01.974Z,0
2017-01-06T03:00:01.990Z,0
2017-01-06T03:01:01.991Z,0
2017-01-06T03:02:02.003Z,0
2017-01-06T03:03:02.012Z,0
2017-01-06T03:04:02.017Z,0
2017-01-06T03:05:02.027Z,0
2017-01-06T03:06:02.033Z,0
2017-01-06T03:07:02.044Z,0
2017-01-06T03:08:02.063Z,0
2017-01-06T03:09:02.058Z,0
2017-01-06T03:10:02.063Z,0
2017-01-06T03:11:02.078Z,0
2017-01-06T03:12:02.078Z,0
2017-01-06T03:13:02.095Z,0
2017-01-06T03:14:02.113Z,0
2017-01-06T03:15:02.109Z,0
2017-01-06T03:16:02.113Z,0
2017-01-06T03:17:02.118Z,0
2017-01-06T03:18:02.129Z,0
2017-01-06T03:19:02.144Z,0
2017-01-06T03:20:02.145Z,0
2017-01-06T03:21:02.158Z,0
2017-01-06T03:22:02.165Z,0
2017-01-06T03:23:02.171Z,0
2017-01-06T03:24:02.185Z,0
2017-01-06T03:25:02.186Z,0
2017-01-06T03:26:02.597Z,0
2017-01-06T03:27:02.200Z,0
2017-01-06T03:28:02.211Z,0
2017-01-06T03:29:02.223Z,0
2017-01-06T03:30:02.226Z,0
2017-01-06T03:31:02.237Z,0
2017-01-06T03:32:02.254Z,0
2017-01-06T03:33:02.250Z,0
2017-01-06T03:34:02.260Z,0
2017-01-06T03:35:02.263Z,0
2017-01-06T03:36:02.281Z,0
2017-01-06T03:37:02.282Z,0
2017-01-06T03:38:02.293Z,0
2017-01-06T03:39:02.301Z,0
2017-01-06T03:40:02.305Z,0
2017-01-06T03:41:02.319Z,0
2017-01-06T03:42:02.320Z,0
2017-01-06T03:43:02.331Z,0
2017-01-06T03:44:02.359Z,0
2017-01-06T03:45:02.342Z,0
2017-01-06T03:46:02.353Z,0
2017-01-06T03:47:02.364Z,0
2017-01-06T03:48:02.375Z,0
2017-01-06T03:49:02.380Z,0
2017-01-06T03:50:02.413Z,0
2017-01-06T03:51:02.395Z,0
2017-01-06T03:52:02.417Z,0
2017-01-06T03:53:02.422Z,0
2017-01-06T03:54:02.826Z,0
2017-01-06T03:55:02.431Z,0
2017-01-06T03:56:02.444Z,0
2017-01-06T03:57:02.449Z,0
2017-01-06T03:58:02.470Z,0
2017-01-06T03:59:02.463Z,0
2017-01-06T04:00:02.467Z,0
2017-01-06T04:01:02.480Z,0
2017-01-06T04:02:02.483Z,0
2017-01-06T04:03:02.502Z,0
2017-01-06T04:04:02.504Z,0
2017-01-06T04:05:02.510Z,0
2017-01-06T04:06:02.549Z,0
2017-01-06T04:07:02.525Z,0
2017-01-06T04:08:02.537Z,0
2017-01-06T04:09:02.937Z,0
2017-01-06T04:10:02.943Z,0
2017-01-06T04:11:02.562Z,0
2017-01-06T04:12:02.577Z,0
2017-01-06T04:13:02.603Z,0
2017-01-06T04:14:02.588Z,0
2017-01-06T04:15:02.595Z,0
2017-01-06T04:16:02.991Z,0
2017-01-06T04:17:02.608Z,0
2017-01-06T04:18:02.615Z,0
2017-01-06T04:19:02.624Z,0
2017-01-06T04:20:02.634Z,0
2017-01-06T04:21:02.635Z,0
2017-01-06T04:22:02.659Z,0
2017-01-06T04:23:02.657Z,0
2017-01-06T04:24:02.703Z,0
2017-01-06T04:25:02.673Z,0
2017-01-06T04:26:02.679Z,0
2017-01-06T04:27:02.694Z,0
2017-01-06T04:28:02.697Z,0
2017-01-06T04:29:02.707Z,0
2017-01-06T04:30:02.729Z,0
2017-01-06T04:31:02.721Z,0
2017-01-06T04:32:02.725Z,0
2017-01-06T04:33:02.734Z,0
2017-01-06T04:34:02.742Z,0
2017-01-06T04:35:02.754Z,0
2017-01-06T04:36:02.772Z,0
2017-01-06T04:37:03.162Z,0
2017-01-06T04:38:02.799Z,0
2017-01-06T04:39:02.784Z,0
2017-01-06T04:40:02.794Z,0
2017-01-06T04:41:02.798Z,0
2017-01-06T04:42:02.805Z,0
2017-01-06T04:43:02.812Z,0
2017-01-06T04:44:02.841Z,0
2017-01-06T04:45:02.832Z,0
2017-01-06T04:46:02.849Z,0
2017-01-06T04:47:02.839Z,0
2017-01-06T04:48:02.855Z,0
2017-01-06T04:49:02.857Z,0
2017-01-06T04:50:02.875Z,0
2017-01-06T04:51:02.880Z,0
2017-01-06T04:52:02.899Z,0
2017-01-06T04:53:02.893Z,0
2017-01-06T04:54:02.927Z,0
2017-01-06T04:55:02.926Z,0
2017-01-06T04:56:02.911Z,0
2017-01-06T04:57:02.920Z,0
2017-01-06T04:58:02.941Z,0
2017-01-06T04:59:02.931Z,0
2017-01-06T05:00:02.960Z,0
2017-01-06T05:01:02.953Z,0
2017-01-06T05:02:02.961Z,0
2017-01-06T05:03:02.973Z,0
2017-01-06T05:04:02.977Z,0
2017-01-06T05:05:02.993Z,0
2017-01-06T05:06:03.450Z,0
2017-01-06T05:07:03.006Z,0
2017-01-06T05:08:03.028Z,0
2017-01-06T05:09:03.016Z,0
2017-01-06T05:10:03.040Z,0
2017-01-06T05:11:03.038Z,0
2017-01-06T05:12:03.043Z,0
2017-01-06T05:13:03.046Z,0
2017-01-06T05:14:03.070Z,0
2017-01-06T05:15:03.061Z,0
2017-01-06T05:16:03.097Z,0
2017-01-06T05:17:03.079Z,0
2017-01-06T05:18:03.086Z,0
2017-01-06T05:19:03.097Z,0
2017-01-06T05:20:03.116Z,0
2017-01-06T05:21:03.110Z,0
2017-01-06T05:22:03.127Z,0
2017-01-06T05:23:03.130Z,0
2017-01-06T05:24:03.161Z,0
2017-01-06T05:25:03.142Z,0
2017-01-06T05:26:03.142Z,0
2017-01-06T05:27:03.165Z,0
2017-01-06T05:28:03.182Z,0
2017-01-06T05:29:03.182Z,0
2017-01-06T05:30:03.192Z,0
2017-01-06T05:31:03.591Z,0
2017-01-06T05:32:03.202Z,0
2017-01-06T05:33:03.206Z,0
2017-01-06T05:34:03.210Z,0
2017-01-06T05:35:03.226Z,0
2017-01-06T05:36:03.240Z,0
2017-01-06T05:37:03.639Z,0
2017-01-06T05:38:03.262Z,0
2017-01-06T05:39:03.253Z,0
2017-01-06T05:40:03.264Z,0
2017-01-06T05:41:03.270Z,0
2017-01-06T05:42:03.281Z,0
2017-01-06T05:43:03.291Z,0
2017-01-06T05:44:03.306Z,0
2017-01-06T05:45:03.314Z,0
2017-01-06T05:46:03.321Z,0
2017-01-06T05:47:03.320Z,0
2017-01-06T05:48:03.340Z,0
2017-01-06T05:49:03.341Z,0
2017-01-06T05:50:03.345Z,0
2017-01-06T05:51:03.351Z,0
2017-01-06T05:52:03.402Z,0
2017-01-06T05:53:03.369Z,0
2017-01-06T05:54:03.437Z,0
2017-01-06T05:55:03.386Z,0
2017-01-06T05:56:03.395Z,0
2017-01-06T05:57:03.401Z,0
2017-01-06T05:58:03.403Z,0
2017-01-06T05:59:03.415Z,0
2017-01-06T06:00:03.430Z,0
2017-01-06T06:01:03.433Z,0
2017-01-06T06:02:03.464Z,0
2017-01-06T06:03:03.446Z,0
2017-01-06T06:04:03.456Z,0
2017-01-06T06:05:03.462Z,0
2017-01-06T06:06:03.475Z,0
2017-01-06T06:07:03.486Z,0
2017-01-06T06:08:03.494Z,0
2017-01-06T06:09:03.495Z,0
2017-01-06T06:10:03.502Z,0
2017-01-06T06:11:03.508Z,0
2017-01-06T06:12:03.519Z,0
2017-01-06T06:13:03.530Z,0
2017-01-06T06:14:03.529Z,0
2017-01-06T06:15:03.537Z,0
2017-01-06T06:16:03.556Z,0
2017-01-06T06:17:03.559Z,0
2017-01-06T06:18:03.593Z,0
2017-01-06T06:19:03.709Z,0
2017-01-06T06:20:03.656Z,0
2017-01-06T06:21:18.520Z,0
2017-01-06T06:22:03.633Z,0
2017-01-06T06:23:03.600Z,0
2017-01-06T06:24:03.776Z,0
2017-01-06T06:25:03.876Z,0
2017-01-06T06:26:03.633Z,0
2017-01-06T06:27:03.638Z,0
2017-01-06T06:28:03.641Z,0
2017-01-06T06:29:03.674Z,0
2017-01-06T06:30:03.659Z,0
2017-01-06T06:31:03.666Z,4
2017-01-06T06:32:03.671Z,0
2017-01-06T06:33:03.682Z,0
2017-01-06T06:34:03.692Z,0
2017-01-06T06:35:03.731Z,0
2017-01-06T06:36:03.704Z,0
2017-01-06T06:37:03.717Z,0
2017-01-06T06:38:03.726Z,0
2017-01-06T06:39:03.728Z,0
2017-01-06T06:40:03.735Z,0
2017-01-06T06:41:03.746Z,0
2017-01-06T06:42:03.745Z,0
2017-01-06T06:43:04.154Z,0
2017-01-06T06:44:03.769Z,0
2017-01-06T06:45:03.776Z,0
2017-01-06T06:46:03.779Z,0
2017-01-06T06:47:03.789Z,0
2017-01-06T06:48:03.804Z,0
2017-01-06T06:49:03.806Z,0
2017-01-06T06:50:03.815Z,0
2017-01-06T06:51:03.822Z,0
2017-01-06T06:52:03.837Z,4
2017-01-06T06:53:03.839Z,4
2017-01-06T06:54:03.852Z,0
2017-01-06T06:55:03.854Z,0
2017-01-06T06:56:03.872Z,4
2017-01-06T06:57:03.923Z,4
2017-01-06T06:58:03.875Z,4
2017-01-06T06:59:03.923Z,4
2017-01-06T07:00:03.898Z,4
2017-01-06T07:01:03.904Z,8
2017-01-06T07:02:03.908Z,4
2017-01-06T07:03:03.917Z,8
2017-01-06T07:04:03.950Z,4
2017-01-06T07:05:03.934Z,8
2017-01-06T07:06:03.938Z,8
2017-01-06T07:07:03.951Z,8
2017-01-06T07:08:03.958Z,12
2017-01-06T07:09:04.361Z,8
2017-01-06T07:10:03.970Z,12
2017-01-06T07:11:03.974Z,16
2017-01-06T07:12:03.995Z,16
2017-01-06T07:13:03.994Z,16
2017-01-06T07:14:04.005Z,16
2017-01-06T07:15:04.039Z,16
2017-01-06T07:16:04.020Z,20
2017-01-06T07:17:04.060Z,20
2017-01-06T07:18:04.043Z,24
2017-01-06T07:19:04.734Z,24
2017-01-06T07:20:04.745Z,24
2017-01-06T07:21:04.754Z,28
2017-01-06T07:22:04.707Z,32
2017-01-06T07:23:04.746Z,32
2017-01-06T07:24:04.087Z,36
2017-01-06T07:25:04.091Z,36
2017-01-06T07:26:04.095Z,40
2017-01-06T07:27:04.103Z,40
2017-01-06T07:28:04.109Z,40
2017-01-06T07:29:04.131Z,44
2017-01-06T07:30:04.121Z,44
2017-01-06T07:31:04.141Z,48
2017-01-06T07:32:04.146Z,48
2017-01-06T07:33:04.152Z,56
2017-01-06T07:34:04.173Z,56
2017-01-06T07:35:04.172Z,56
2017-01-06T07:36:04.177Z,60
2017-01-06T07:37:04.179Z,64
2017-01-06T07:38:04.195Z,64
2017-01-06T07:39:04.203Z,68
2017-01-06T07:40:04.204Z,68
2017-01-06T07:41:04.214Z,72
2017-01-06T07:42:04.226Z,76
2017-01-06T07:43:04.227Z,76
2017-01-06T07:44:04.250Z,76
2017-01-06T07:45:04.244Z,80
2017-01-06T07:46:04.266Z,80
2017-01-06T07:47:04.256Z,84
2017-01-06T07:48:04.268Z,84
2017-01-06T07:49:04.280Z,88
2017-01-06T07:50:04.292Z,92
2017-01-06T07:51:04.294Z,92
2017-01-06T07:52:04.307Z,96
2017-01-06T07:53:04.315Z,100
2017-01-06T07:54:04.312Z,100
2017-01-06T07:55:04.330Z,100
2017-01-06T07:56:04.358Z,104
2017-01-06T07:57:04.336Z,104
2017-01-06T07:58:04.349Z,108
2017-01-06T07:59:04.358Z,108
2017-01-06T08:00:04.371Z,108
2017-01-06T08:01:04.377Z,112
2017-01-06T08:02:04.384Z,112
2017-01-06T08:03:04.392Z,112
2017-01-06T08:04:04.393Z,116
2017-01-06T08:05:04.403Z,116
2017-01-06T08:06:04.415Z,120
2017-01-06T08:07:04.426Z,120
2017-01-06T08:08:04.438Z,124
2017-01-06T08:09:04.432Z,124
2017-01-06T08:10:04.439Z,128
2017-01-06T08:11:04.476Z,124
2017-01-06T08:12:04.464Z,128
2017-01-06T08:13:04.463Z,132
2017-01-06T08:14:04.482Z,132
2017-01-06T08:15:04.481Z,132
2017-01-06T08:16:04.490Z,132
2017-01-06T08:17:04.507Z,136
2017-01-06T08:18:04.507Z,140
2017-01-06T08:19:04.521Z,140
2017-01-06T08:20:04.519Z,140
2017-01-06T08:21:04.524Z,140
2017-01-06T08:22:04.572Z,140
2017-01-06T08:23:04.543Z,144
2017-01-06T08:24:04.560Z,148
2017-01-06T08:25:04.558Z,144
2017-01-06T08:26:04.578Z,148
2017-01-06T08:27:04.577Z,156
2017-01-06T08:28:04.583Z,152
2017-01-06T08:29:04.592Z,152
2017-01-06T08:30:04.616Z,156
2017-01-06T08:31:04.609Z,156
2017-01-06T08:32:04.611Z,156
2017-01-06T08:33:04.629Z,156
2017-01-06T08:34:04.634Z,160
2017-01-06T08:35:04.673Z,160
2017-01-06T08:36:04.650Z,160
2017-01-06T08:37:04.659Z,164
2017-01-06T08:38:04.667Z,160
2017-01-06T08:39:04.678Z,164
2017-01-06T08:40:04.682Z,164
2017-01-06T08:41:04.702Z,168
2017-01-06T08:42:04.710Z,164
2017-01-06T08:43:04.922Z,168
2017-01-06T08:44:04.740Z,172
2017-01-06T08:45:04.726Z,168
2017-01-06T08:46:04.748Z,172
2017-01-06T08:47:04.743Z,172
2017-01-06T08:48:04.760Z,176
2017-01-06T08:49:04.755Z,176
2017-01-06T08:50:04.766Z,176
2017-01-06T08:51:04.775Z,176
2017-01-06T08:52:04.811Z,176
2017-01-06T08:53:04.782Z,176
2017-01-06T08:54:04.822Z,180
2017-01-06T08:55:04.813Z,176
2017-01-06T08:56:04.817Z,180
2017-01-06T08:57:04.824Z,180
2017-01-06T08:58:04.841Z,184
2017-01-06T08:59:04.838Z,180
2017-01-06T09:00:04.877Z,184
2017-01-06T09:01:04.855Z,184
2017-01-06T09:02:04.879Z,188
2017-01-06T09:03:04.864Z,184
2017-01-06T09:04:04.876Z,188
2017-01-06T09:05:04.900Z,188
2017-01-06T09:06:04.912Z,188
2017-01-06T09:07:04.909Z,192
2017-01-06T09:08:04.989Z,188
2017-01-06T09:09:04.926Z,192
2017-01-06T09:10:04.946Z,192
2017-01-06T09:11:04.933Z,192
2017-01-06T09:12:04.969Z,192
2017-01-06T09:13:05.025Z,192
2017-01-06T09:14:04.962Z,196
2017-01-06T09:15:04.965Z,196
2017-01-06T09:16:05.004Z,196
2017-01-06T09:17:04.979Z,196
2017-01-06T09:18:04.988Z,196
2017-01-06T09:19:04.999Z,200
2017-01-06T09:20:05.013Z,200
2017-01-06T09:21:05.015Z,200
2017-01-06T09:22:05.029Z,200
2017-01-06T09:23:05.100Z,200
2017-01-06T09:24:05.050Z,204
2017-01-06T09:25:05.041Z,204
2017-01-06T09:26:05.066Z,204
2017-01-06T09:27:05.056Z,204
2017-01-06T09:28:05.073Z,204
2017-01-06T09:29:05.084Z,204
2017-01-06T09:30:05.505Z,208
2017-01-06T09:31:05.091Z,204
2017-01-06T09:32:05.166Z,204
2017-01-06T09:33:05.114Z,208
2017-01-06T09:34:05.114Z,208
2017-01-06T09:35:05.526Z,208
2017-01-06T09:36:05.142Z,208
2017-01-06T09:37:05.141Z,208
2017-01-06T09:38:05.168Z,208
2017-01-06T09:39:05.158Z,212
2017-01-06T09:40:05.174Z,212
2017-01-06T09:41:05.619Z,212
2017-01-06T09:42:05.185Z,212
2017-01-06T09:43:05.191Z,212
2017-01-06T09:44:05.246Z,212
2017-01-06T09:45:05.238Z,216
2017-01-06T09:46:05.230Z,216
2017-01-06T09:47:05.227Z,216
2017-01-06T09:48:05.231Z,216
2017-01-06T09:49:05.244Z,220
2017-01-06T09:50:05.247Z,216
2017-01-06T09:51:05.256Z,216
2017-01-06T09:52:05.279Z,216
2017-01-06T09:53:05.303Z,216
2017-01-06T09:54:05.342Z,220
2017-01-06T09:55:05.300Z,220
2017-01-06T09:56:05.290Z,220
2017-01-06T09:57:05.308Z,220
2017-01-06T09:58:05.344Z,224
2017-01-06T09:59:05.320Z,216
2017-01-06T10:00:05.345Z,220
2017-01-06T10:01:05.727Z,220
2017-01-06T10:02:05.350Z,220
2017-01-06T10:03:05.352Z,220
2017-01-06T10:04:05.384Z,224
2017-01-06T10:05:05.368Z,224
2017-01-06T10:06:05.395Z,220
2017-01-06T10:07:05.382Z,220
2017-01-06T10:08:05.405Z,224
2017-01-06T10:09:05.404Z,224
2017-01-06T10:10:05.415Z,224
2017-01-06T10:11:05.414Z,228
2017-01-06T10:12:05.418Z,224
2017-01-06T10:13:05.431Z,228
2017-01-06T10:14:05.452Z,228
2017-01-06T10:15:05.453Z,228
2017-01-06T10:16:05.486Z,228
2017-01-06T10:17:05.462Z,228
2017-01-06T10:18:05.471Z,232
2017-01-06T10:19:05.473Z,240
2017-01-06T10:20:05.488Z,244
2017-01-06T10:21:05.504Z,252
2017-01-06T10:22:05.505Z,260
2017-01-06T10:23:05.513Z,264
2017-01-06T10:24:05.531Z,272
2017-01-06T10:25:05.532Z,276
2017-01-06T10:26:05.533Z,284
2017-01-06T10:27:05.550Z,288
2017-01-06T10:28:05.551Z,296
2017-01-06T10:29:05.554Z,300
2017-01-06T10:30:05.585Z,312
2017-01-06T10:31:05.611Z,312
2017-01-06T10:32:05.606Z,320
2017-01-06T10:33:05.606Z,328
2017-01-06T10:34:05.606Z,336
2017-01-06T10:35:05.605Z,344
2017-01-06T10:36:05.642Z,348
2017-01-06T10:37:05.638Z,352
2017-01-06T10:38:05.670Z,360
2017-01-06T10:39:05.645Z,364
2017-01-06T10:40:06.062Z,372
2017-01-06T10:41:05.660Z,380
2017-01-06T10:42:05.664Z,388
2017-01-06T10:43:05.680Z,392
2017-01-06T10:44:05.683Z,400
2017-01-06T10:45:05.685Z,404
2017-01-06T10:46:05.709Z,408
2017-01-06T10:47:05.709Z,416
2017-01-06T10:48:05.710Z,420
2017-01-06T10:49:05.713Z,428
2017-01-06T10:50:05.729Z,432
2017-01-06T10:51:05.770Z,436
2017-01-06T10:52:05.752Z,444
2017-01-06T10:53:05.752Z,452
2017-01-06T10:54:05.768Z,456
2017-01-06T10:55:05.774Z,464
2017-01-06T10:56:05.784Z,468
2017-01-06T10:57:05.787Z,472
2017-01-06T10:58:05.793Z,480
2017-01-06T10:59:05.803Z,496
2017-01-06T11:00:05.812Z,492
2017-01-06T11:01:05.827Z,496
2017-01-06T11:02:05.827Z,500
2017-01-06T11:03:05.832Z,504
2017-01-06T11:04:05.840Z,512
2017-01-06T11:05:05.852Z,516
2017-01-06T11:06:05.856Z,516
2017-01-06T11:07:05.867Z,528
2017-01-06T11:08:05.875Z,528
2017-01-06T11:09:05.891Z,532
2017-01-06T11:10:05.897Z,536
2017-01-06T11:11:05.907Z,540
2017-01-06T11:12:05.903Z,544
2017-01-06T11:13:05.911Z,552
2017-01-06T11:14:05.930Z,552
2017-01-06T11:15:05.937Z,560
2017-01-06T11:16:05.945Z,560
2017-01-06T11:17:05.946Z,564
2017-01-06T11:18:05.952Z,568
2017-01-06T11:19:05.963Z,572
2017-01-06T11:20:05.977Z,572
2017-01-06T11:21:05.986Z,576
2017-01-06T11:22:05.990Z,576
2017-01-06T11:23:06.001Z,584
2017-01-06T11:24:06.002Z,588
2017-01-06T11:25:06.037Z,588
2017-01-06T11:26:06.017Z,596
2017-01-06T11:27:06.030Z,596
2017-01-06T11:28:06.043Z,604
2017-01-06T11:29:06.053Z,604
2017-01-06T11:30:06.063Z,604
2017-01-06T11:31:06.064Z,608
2017-01-06T11:32:06.074Z,608
2017-01-06T11:33:06.083Z,612
2017-01-06T11:34:06.087Z,612
2017-01-06T11:35:06.101Z,616
2017-01-06T11:36:06.103Z,616
2017-01-06T11:37:06.116Z,620
2017-01-06T11:38:06.125Z,616
2017-01-06T11:39:06.134Z,616
2017-01-06T11:40:06.146Z,616
2017-01-06T11:41:06.152Z,620
2017-01-06T11:42:06.189Z,624
2017-01-06T11:43:06.166Z,624
2017-01-06T11:44:06.174Z,624
2017-01-06T11:45:06.184Z,624
2017-01-06T11:46:06.195Z,620
2017-01-06T11:47:06.197Z,624
2017-01-06T11:48:06.212Z,628
2017-01-06T11:49:06.239Z,628
2017-01-06T11:50:06.221Z,624
2017-01-06T11:51:06.232Z,620
2017-01-06T11:52:06.245Z,612
2017-01-06T11:53:06.243Z,612
2017-01-06T11:54:06.663Z,608
2017-01-06T11:55:06.262Z,604
2017-01-06T11:56:06.276Z,596
2017-01-06T11:57:06.278Z,592
2017-01-06T11:58:06.292Z,592
2017-01-06T11:59:06.295Z,592
2017-01-06T12:00:06.311Z,588
2017-01-06T12:01:06.322Z,584
2017-01-06T12:02:06.325Z,580
2017-01-06T12:03:06.336Z,576
2017-01-06T12:04:06.354Z,576
2017-01-06T12:05:06.350Z,568
2017-01-06T12:06:06.358Z,568
2017-01-06T12:07:06.374Z,552
2017-01-06T12:08:06.382Z,544
2017-01-06T12:09:06.382Z,552
2017-01-06T12:10:06.395Z,548
2017-01-06T12:11:06.428Z,536
2017-01-06T12:12:06.406Z,540
2017-01-06T12:13:06.419Z,536
2017-01-06T12:14:06.429Z,524
2017-01-06T12:15:06.434Z,524
2017-01-06T12:16:06.449Z,512
2017-01-06T12:17:06.456Z,512
2017-01-06T12:18:06.474Z,508
2017-01-06T12:19:06.475Z,508
2017-01-06T12:20:06.476Z,500
2017-01-06T12:21:06.495Z,492
2017-01-06T12:22:06.501Z,488
2017-01-06T12:23:06.507Z,484
2017-01-06T12:24:06.515Z,476
2017-01-06T12:25:06.550Z,464
2017-01-06T12:26:06.533Z,460
2017-01-06T12:27:06.542Z,452
2017-01-06T12:28:06.946Z,444
2017-01-06T12:29:06.563Z,444
2017-01-06T12:30:06.567Z,440
2017-01-06T12:31:06.584Z,428
2017-01-06T12:32:06.586Z,428
2017-01-06T12:33:06.598Z,420
2017-01-06T12:34:06.603Z,412
2017-01-06T12:35:06.616Z,404
2017-01-06T12:36:06.620Z,400
2017-01-06T12:37:06.631Z,392
2017-01-06T12:38:06.658Z,384
2017-01-06T12:39:06.644Z,380
2017-01-06T12:40:07.050Z,372
2017-01-06T12:41:06.664Z,368
2017-01-06T12:42:06.669Z,360
2017-01-06T12:43:06.682Z,356
2017-01-06T12:44:06.704Z,348
2017-01-06T12:45:06.705Z,340
2017-01-06T12:46:06.705Z,336
2017-01-06T12:47:06.721Z,328
2017-01-06T12:48:06.726Z,324
2017-01-06T12:49:06.738Z,316
2017-01-06T12:50:06.746Z,312
2017-01-06T12:51:06.756Z,304
2017-01-06T12:52:06.768Z,296
2017-01-06T12:53:06.772Z,288
2017-01-06T12:54:06.780Z,288
2017-01-06T12:55:06.800Z,280
2017-01-06T12:56:06.806Z,272
2017-01-06T12:57:06.805Z,276
2017-01-06T12:58:06.824Z,268
2017-01-06T12:59:06.833Z,260
2017-01-06T13:00:06.855Z,252
2017-01-06T13:01:06.844Z,252
2017-01-06T13:02:06.884Z,244
2017-01-06T13:03:06.863Z,240
2017-01-06T13:04:06.866Z,240
2017-01-06T13:05:06.885Z,236
2017-01-06T13:06:06.895Z,236
2017-01-06T13:07:06.897Z,232
2017-01-06T13:08:06.918Z,232
2017-01-06T13:09:06.922Z,232
2017-01-06T13:10:07.315Z,228
2017-01-06T13:11:06.933Z,224
2017-01-06T13:12:06.983Z,224
2017-01-06T13:13:06.952Z,220
2017-01-06T13:14:06.975Z,224
2017-01-06T13:15:06.969Z,220
2017-01-06T13:16:06.981Z,224
2017-01-06T13:17:06.979Z,220
2017-01-06T13:18:06.995Z,220
2017-01-06T13:19:07.010Z,216
2017-01-06T13:20:07.010Z,216
2017-01-06T13:21:07.022Z,220
2017-01-06T13:22:07.055Z,220
2017-01-06T13:23:07.036Z,216
2017-01-06T13:24:07.073Z,216
2017-01-06T13:25:07.056Z,216
2017-01-06T13:26:07.070Z,216
2017-01-06T13:27:07.076Z,216
2017-01-06T13:28:07.085Z,212
2017-01-06T13:29:07.090Z,216
2017-01-06T13:30:07.114Z,216
2017-01-06T13:31:07.111Z,212
2017-01-06T13:32:07.143Z,212
2017-01-06T13:33:07.130Z,212
2017-01-06T13:34:07.141Z,208
2017-01-06T13:35:07.153Z,208
2017-01-06T13:36:07.168Z,208
2017-01-06T13:37:07.160Z,208
2017-01-06T13:38:07.197Z,208
2017-01-06T13:39:07.184Z,204
2017-01-06T13:40:07.206Z,208
2017-01-06T13:41:07.203Z,204
2017-01-06T13:42:07.253Z,204
2017-01-06T13:43:07.220Z,200
2017-01-06T13:44:07.242Z,204
2017-01-06T13:45:07.237Z,204
2017-01-06T13:46:07.260Z,200
2017-01-06T13:47:07.254Z,196
2017-01-06T13:48:07.271Z,200
2017-01-06T13:49:07.273Z,196
2017-01-06T13:50:07.283Z,196
2017-01-06T13:51:07.319Z,192
2017-01-06T13:52:07.316Z,196
2017-01-06T13:53:07.330Z,192
2017-01-06T13:54:07.335Z,192
2017-01-06T13:55:07.332Z,192
2017-01-06T13:56:07.335Z,192
2017-01-06T13:57:07.341Z,188
2017-01-06T13:58:07.365Z,188
2017-01-06T13:59:07.365Z,188
2017-01-06T14:00:07.398Z,184
2017-01-06T14:01:07.413Z,188
2017-01-06T14:02:07.834Z,184
2017-01-06T14:03:07.404Z,180
2017-01-06T14:04:07.428Z,184
2017-01-06T14:05:07.619Z,180
2017-01-06T14:06:07.429Z,180
2017-01-06T14:07:07.449Z,176
2017-01-06T14:08:07.471Z,172
2017-01-06T14:09:07.460Z,176
2017-01-06T14:10:07.487Z,172
2017-01-06T14:11:07.479Z,172
2017-01-06T14:12:07.481Z,172
2017-01-06T14:13:07.499Z,168
2017-01-06T14:14:07.540Z,168
2017-01-06T14:15:07.517Z,164
2017-01-06T14:16:07.538Z,164
2017-01-06T14:17:07.532Z,160